Terminal Aerodrome Forecast
Issued by NWS

Home | Current Version | Previous Version | Text Only | Print | Product List | Glossary Off
Versions: 1 2 3 4 5 6 7 8 9 10 11 12 13 14 15

000
FTUS43 KMPX 231728
TAFRNH
TAF
KRNH 231728Z 2318/2418 19009KT P6SM SCT050 BKN250
     FM240100 16005KT P6SM FEW050 SCT250
     FM241600 18011G17KT P6SM SCT250=

USA.gov is the U.S. government's official web portal to all federal, state and local government web resources and services.